Amanda Park, Washington
Current Conditions -  °F | °C
As of 1:53 PM on Sunday 23 Nov 2014 (Local Time) from KHQM Reporting Station
Haze Haze  
Wind Chill: 54°   Ceiling: Unl
Heat Index: 54°   Visibility: 6mi
Dew Point: 45°   Wind: 13mph
Humidity: 72%   Direction: 270°W
Pressure: 30.21"   Gusts: NA
Location:  47.46°N, 123.89°W
Report Text: KHQM 232153Z AUTO 27011KT 6SM HZ CLR 12/07 A3021 RMK AO2 SLP232 T01220072
Loading
Personal Weather Stations






























Interactive Weather Map New forecast layout! Learn more

10-Day Weather Forecast

Advertisements
Track Severe Weather on mobile